createdAt,value
2023-05-18T00:00:17.418Z,7.88
2023-05-18T00:02:44.187Z,7.60
2023-05-18T00:05:10.782Z,8.05
2023-05-18T00:07:37.509Z,7.55
2023-05-18T00:10:04.472Z,9.13
2023-05-18T00:12:31.168Z,8.35
2023-05-18T00:14:57.744Z,8.25
2023-05-18T00:17:24.564Z,8.32
2023-05-18T00:19:51.820Z,8.60
2023-05-18T00:22:19.108Z,8.07
2023-05-18T00:24:46.756Z,7.60
2023-05-18T00:27:13.704Z,8.35
2023-05-18T00:29:40.395Z,7.63
2023-05-18T00:32:07.354Z,8.55
2023-05-18T00:34:33.955Z,8.73
2023-05-18T00:37:00.644Z,8.57
2023-05-18T00:39:27.472Z,8.40
2023-05-18T00:41:54.038Z,8.52
2023-05-18T00:44:20.610Z,8.10
2023-05-18T00:46:47.198Z,8.80
2023-05-18T00:49:13.906Z,9.18
2023-05-18T00:51:41.218Z,9.00
2023-05-18T00:54:08.341Z,9.65
2023-05-18T00:56:35.498Z,8.82
2023-05-18T00:59:03.257Z,8.07
2023-05-18T01:01:34.830Z,8.15
2023-05-18T01:04:03.562Z,8.25
2023-05-18T01:06:36.607Z,8.60
2023-05-18T01:09:05.437Z,8.18
2023-05-18T01:11:49.801Z,8.75
2023-05-18T01:14:30.669Z,8.65
2023-05-18T01:17:10.944Z,8.63
2023-05-18T01:19:59.278Z,8.17
2023-05-18T01:22:51.230Z,8.82
2023-05-18T01:25:18.689Z,8.57
2023-05-18T01:27:46.820Z,8.80
2023-05-18T01:30:16.258Z,8.20
2023-05-18T01:32:42.869Z,8.73
2023-05-18T01:35:09.612Z,9.02
2023-05-18T01:37:36.193Z,8.57
2023-05-18T01:40:05.572Z,11.25
2023-05-18T01:42:35.154Z,8.85
2023-05-18T01:45:06.936Z,9.18
2023-05-18T01:47:34.896Z,9.38
2023-05-18T01:50:08.400Z,9.27
2023-05-18T01:52:43.404Z,9.07
2023-05-18T01:55:11.137Z,8.77
2023-05-18T01:57:39.887Z,9.13
2023-05-18T02:00:09.180Z,8.90
2023-05-18T02:02:36.221Z,9.32
2023-05-18T02:05:02.921Z,9.15
2023-05-18T02:07:29.620Z,10.15
2023-05-18T02:09:56.243Z,9.65
2023-05-18T02:12:22.794Z,9.00
2023-05-18T02:14:49.316Z,9.45
2023-05-18T02:17:15.906Z,9.45
2023-05-18T02:19:43.162Z,10.63
2023-05-18T02:22:09.711Z,9.60
2023-05-18T02:24:36.277Z,9.60
2023-05-18T02:27:03.057Z,9.82
2023-05-18T02:29:29.666Z,8.70
2023-05-18T02:31:56.348Z,9.20
2023-05-18T02:34:24.733Z,9.88
2023-05-18T02:36:51.291Z,9.88
2023-05-18T02:39:17.821Z,9.13
2023-05-18T02:41:44.384Z,9.30
2023-05-18T02:44:12.390Z,9.85
2023-05-18T02:46:39.133Z,9.75
2023-05-18T02:49:05.836Z,9.88
2023-05-18T02:51:32.511Z,9.07
2023-05-18T02:53:59.133Z,9.20
2023-05-18T02:56:25.636Z,9.38
2023-05-18T02:58:57.872Z,9.98
2023-05-18T03:01:27.708Z,9.20
2023-05-18T03:03:54.783Z,10.27
2023-05-18T03:06:26.733Z,9.38
2023-05-18T03:08:56.464Z,9.40
2023-05-18T03:11:23.784Z,9.23
2023-05-18T03:13:50.511Z,10.02
2023-05-18T03:16:17.139Z,9.63
2023-05-18T03:18:43.860Z,9.93
2023-05-18T03:21:13.607Z,9.40
2023-05-18T03:23:40.675Z,9.43
2023-05-18T03:26:10.661Z,10.57
2023-05-18T03:28:38.539Z,9.60
2023-05-18T03:31:05.641Z,9.55
2023-05-18T03:33:32.288Z,10.00
2023-05-18T03:36:02.548Z,9.75
2023-05-18T03:38:29.136Z,9.88
2023-05-18T03:40:55.746Z,10.23
2023-05-18T03:43:25.793Z,9.60
2023-05-18T03:45:52.988Z,9.60
2023-05-18T03:48:21.659Z,10.40
2023-05-18T03:50:48.856Z,9.98
2023-05-18T03:53:19.004Z,10.15
2023-05-18T03:55:49.374Z,9.57
2023-05-18T03:58:16.300Z,10.02
2023-05-18T04:00:42.997Z,9.50
2023-05-18T04:03:12.719Z,9.98
2023-05-18T04:05:39.782Z,10.13
2023-05-18T04:08:07.650Z,10.60
2023-05-18T04:10:34.971Z,10.20
2023-05-18T04:13:01.924Z,9.73
2023-05-18T04:15:28.968Z,9.93
2023-05-18T04:17:55.728Z,9.77
2023-05-18T04:20:22.255Z,9.80
2023-05-18T04:22:49.128Z,9.32
2023-05-18T04:25:16.200Z,9.68
2023-05-18T04:27:43.830Z,10.02
2023-05-18T04:30:11.588Z,10.70
2023-05-18T04:32:39.297Z,10.00
2023-05-18T04:35:09.784Z,10.00
2023-05-18T04:37:40.240Z,8.90
2023-05-18T04:40:08.271Z,9.68
2023-05-18T04:42:35.645Z,9.88
2023-05-18T04:45:06.003Z,9.40
2023-05-18T04:47:32.959Z,9.60
2023-05-18T04:49:59.600Z,10.32
2023-05-18T04:52:26.244Z,9.85
2023-05-18T04:54:52.876Z,9.93
2023-05-18T04:57:19.462Z,9.93
2023-05-18T04:59:47.341Z,9.88
2023-05-18T05:02:14.489Z,9.27
2023-05-18T05:04:41.984Z,9.48
2023-05-18T05:07:08.515Z,9.77
2023-05-18T05:09:35.020Z,9.75
2023-05-18T05:12:02.198Z,10.00
2023-05-18T05:14:28.712Z,10.02
2023-05-18T05:16:55.202Z,10.05
2023-05-18T05:19:21.752Z,10.10
2023-05-18T05:21:48.363Z,10.35
2023-05-18T05:24:14.943Z,9.52
2023-05-18T05:26:41.423Z,10.07
2023-05-18T05:29:07.972Z,9.70
2023-05-18T05:31:34.739Z,9.55
2023-05-18T05:34:01.367Z,10.30
2023-05-18T05:36:28.011Z,9.43
2023-05-18T05:38:54.621Z,12.20
2023-05-18T05:41:22.706Z,10.45
2023-05-18T05:43:49.251Z,10.88
2023-05-18T05:46:15.821Z,10.90
2023-05-18T05:48:42.507Z,11.48
2023-05-18T05:51:09.064Z,9.90
2023-05-18T05:53:35.906Z,9.30
2023-05-18T05:56:02.449Z,9.10
2023-05-18T05:58:29.040Z,10.43
2023-05-18T06:00:55.752Z,10.55
2023-05-18T06:03:22.367Z,10.18
2023-05-18T06:05:49.407Z,8.75
2023-05-18T06:08:16.994Z,9.05
2023-05-18T06:10:43.622Z,8.63
2023-05-18T06:13:10.491Z,9.07
2023-05-18T06:15:37.060Z,9.23
2023-05-18T06:18:03.799Z,9.60
2023-05-18T06:20:30.419Z,9.82
2023-05-18T06:22:57.574Z,8.63
2023-05-18T06:25:24.375Z,7.93
2023-05-18T06:27:52.007Z,8.85
2023-05-18T06:30:18.605Z,8.82
2023-05-18T06:32:45.157Z,8.77
2023-05-18T06:35:13.043Z,9.25
2023-05-18T06:37:39.838Z,10.07
2023-05-18T06:40:07.466Z,8.50
2023-05-18T06:42:34.209Z,8.23
2023-05-18T06:45:00.752Z,8.55
2023-05-18T06:47:27.365Z,8.90
2023-05-18T06:49:53.931Z,7.97
2023-05-18T06:52:20.570Z,8.50
2023-05-18T06:54:47.153Z,8.45
2023-05-18T06:57:13.913Z,9.63
2023-05-18T06:59:40.787Z,8.52
2023-05-18T07:02:07.566Z,8.40
2023-05-18T07:04:34.089Z,8.55
2023-05-18T07:07:00.555Z,8.60
2023-05-18T07:09:27.192Z,8.75
2023-05-18T07:11:53.789Z,8.52
2023-05-18T07:14:20.410Z,8.65
2023-05-18T07:16:47.436Z,10.10
2023-05-18T07:19:15.048Z,8.98
2023-05-18T07:21:42.229Z,8.93
2023-05-18T07:24:08.892Z,8.35
2023-05-18T07:26:35.519Z,8.75
2023-05-18T07:29:02.078Z,7.75
2023-05-18T07:31:28.776Z,7.88
2023-05-18T07:33:55.512Z,8.25
2023-05-18T07:36:22.194Z,7.80
2023-05-18T07:38:54.786Z,7.80
2023-05-18T07:41:22.976Z,7.60
2023-05-18T07:43:50.726Z,7.60
2023-05-18T07:46:17.404Z,8.55
2023-05-18T07:48:45.199Z,8.38
2023-05-18T07:51:12.353Z,8.48
2023-05-18T07:53:39.572Z,8.05
2023-05-18T07:56:07.555Z,8.40
2023-05-18T07:58:35.668Z,7.80
2023-05-18T08:01:02.315Z,8.27
2023-05-18T08:03:29.142Z,8.82
2023-05-18T08:05:56.181Z,8.88
2023-05-18T08:08:22.746Z,10.68
2023-05-18T08:10:49.230Z,9.23
2023-05-18T08:13:15.900Z,7.97
2023-05-18T08:15:42.478Z,8.23
2023-05-18T08:18:09.147Z,7.82
2023-05-18T08:20:36.163Z,8.65
2023-05-18T08:23:02.720Z,8.18
2023-05-18T08:25:29.439Z,7.47
2023-05-18T08:27:56.353Z,7.85
2023-05-18T08:30:22.930Z,8.82
2023-05-18T08:32:49.609Z,8.50
2023-05-18T08:35:16.414Z,8.40
2023-05-18T08:37:43.389Z,8.13
2023-05-18T08:40:11.440Z,8.20
2023-05-18T08:42:51.918Z,7.40
2023-05-18T08:45:23.700Z,7.93
2023-05-18T08:47:51.549Z,7.80
2023-05-18T08:50:23.523Z,7.60
2023-05-18T08:52:55.284Z,7.55
2023-05-18T08:57:55.965Z,8.80
2023-05-18T09:00:24.587Z,7.80
2023-05-18T09:02:51.547Z,8.25
2023-05-18T09:05:18.653Z,7.88
2023-05-18T09:07:46.177Z,7.85
2023-05-18T09:10:15.394Z,7.90
2023-05-18T09:12:43.250Z,8.00
2023-05-18T09:15:11.037Z,8.30
2023-05-18T09:17:37.773Z,8.38
2023-05-18T09:20:08.181Z,7.38
2023-05-18T09:22:41.168Z,8.23
2023-05-18T09:25:11.140Z,8.15
2023-05-18T09:27:38.344Z,9.00
2023-05-18T09:30:06.068Z,8.73
2023-05-18T09:32:36.446Z,7.97
2023-05-18T09:35:08.265Z,8.38
2023-05-18T09:37:35.190Z,7.78
2023-05-18T09:40:05.230Z,9.02
2023-05-18T09:42:38.642Z,7.82
2023-05-18T09:45:19.401Z,8.13
2023-05-18T09:47:46.654Z,8.25
2023-05-18T09:50:13.415Z,8.57
2023-05-18T09:52:43.693Z,8.55
2023-05-18T09:55:11.700Z,9.20
2023-05-18T09:57:44.224Z,8.77
2023-05-18T10:00:11.868Z,8.45
2023-05-18T10:02:41.409Z,9.18
2023-05-18T10:05:33.971Z,8.52
2023-05-18T10:08:02.378Z,9.23
2023-05-18T10:10:29.808Z,9.10
2023-05-18T10:12:58.504Z,8.68
2023-05-18T10:15:25.771Z,8.55
2023-05-18T10:17:56.519Z,8.80
2023-05-18T10:22:51.019Z,9.07
2023-05-18T10:25:22.754Z,8.75
2023-05-18T10:27:50.821Z,9.05
2023-05-18T10:30:20.205Z,8.43
2023-05-18T10:32:47.877Z,8.88
2023-05-18T10:35:15.054Z,8.82
2023-05-18T10:37:49.117Z,7.70
2023-05-18T10:40:17.707Z,8.48
2023-05-18T10:42:45.866Z,8.55
2023-05-18T10:45:12.672Z,8.88
2023-05-18T10:47:40.448Z,8.50
2023-05-18T10:50:08.601Z,8.73
2023-05-18T10:52:37.094Z,9.23
2023-05-18T10:55:04.595Z,8.75
2023-05-18T10:57:38.401Z,8.65
2023-05-18T11:00:10.220Z,9.18
2023-05-18T11:02:40.200Z,8.90
2023-05-18T11:05:07.384Z,8.45
2023-05-18T11:07:34.396Z,8.30
2023-05-18T11:10:02.169Z,7.90
2023-05-18T11:12:32.960Z,8.48
2023-05-18T11:15:00.993Z,8.20
2023-05-18T11:17:29.762Z,7.88
2023-05-18T11:20:08.922Z,7.90
2023-05-18T11:22:59.816Z,7.97
2023-05-18T11:25:26.532Z,7.97
2023-05-18T11:27:57.414Z,9.02
2023-05-18T11:30:27.443Z,8.30
2023-05-18T11:33:17.697Z,8.77
2023-05-18T11:36:12.114Z,8.63
2023-05-18T11:38:55.138Z,9.07
2023-05-18T11:41:42.662Z,9.10
2023-05-18T11:44:12.573Z,8.65
2023-05-18T11:46:55.455Z,9.13
2023-05-18T11:49:26.739Z,7.97
2023-05-18T11:52:05.428Z,9.02
2023-05-18T11:54:41.294Z,8.90
2023-05-18T11:57:08.806Z,8.32
2023-05-18T11:59:43.546Z,7.68
2023-05-18T12:02:11.832Z,7.75
2023-05-18T12:04:48.007Z,7.60
2023-05-18T12:07:14.946Z,7.32
2023-05-18T12:09:45.647Z,6.82
2023-05-18T12:14:41.818Z,7.55
2023-05-18T12:17:10.760Z,6.95
2023-05-18T12:19:48.595Z,7.00
2023-05-18T12:22:15.919Z,8.13
2023-05-18T12:24:43.640Z,7.55
2023-05-18T12:27:12.106Z,7.18
2023-05-18T12:29:42.286Z,7.60
2023-05-18T12:32:11.502Z,6.93
2023-05-18T12:34:39.116Z,7.22
2023-05-18T12:37:08.925Z,7.32
2023-05-18T12:39:36.908Z,7.47
2023-05-18T12:42:15.301Z,7.45
2023-05-18T12:44:46.092Z,7.20
2023-05-18T12:47:15.855Z,7.97
2023-05-18T12:49:49.234Z,8.00
2023-05-18T12:52:16.660Z,7.55
2023-05-18T12:54:50.317Z,7.88
2023-05-18T12:57:21.077Z,7.70
2023-05-18T12:59:50.177Z,7.57
2023-05-18T13:02:38.639Z,7.85
2023-05-18T13:05:09.009Z,7.35
2023-05-18T13:07:43.662Z,7.50
2023-05-18T13:10:13.048Z,6.90
2023-05-18T13:12:43.823Z,7.65
2023-05-18T13:15:11.991Z,7.72
2023-05-18T13:17:38.988Z,7.45
2023-05-18T13:20:13.452Z,7.10
2023-05-18T13:22:40.166Z,7.47
2023-05-18T13:25:07.477Z,7.90
2023-05-18T13:27:34.049Z,7.07
2023-05-18T13:30:00.677Z,7.53
2023-05-18T13:32:27.397Z,7.43
2023-05-18T13:34:53.992Z,8.27
2023-05-18T13:37:20.697Z,7.15
2023-05-18T13:39:47.366Z,7.38
2023-05-18T13:42:14.125Z,7.20
2023-05-18T13:44:40.863Z,7.22
2023-05-18T13:47:07.486Z,7.20
2023-05-18T13:49:33.986Z,8.13
2023-05-18T13:52:00.686Z,7.47
2023-05-18T13:54:27.259Z,6.93
2023-05-18T13:56:54.521Z,8.10
2023-05-18T13:59:22.073Z,7.88
2023-05-18T14:01:49.667Z,7.20
2023-05-18T14:04:16.275Z,6.90
2023-05-18T14:06:42.757Z,6.60
2023-05-18T14:09:09.297Z,7.43
2023-05-18T14:11:38.363Z,7.47
2023-05-18T14:14:04.936Z,7.47
2023-05-18T14:16:31.579Z,8.25
2023-05-18T14:18:58.164Z,7.75
2023-05-18T14:21:24.722Z,7.30
2023-05-18T14:23:51.605Z,8.30
2023-05-18T14:26:18.203Z,7.00
2023-05-18T14:28:45.021Z,6.97
2023-05-18T14:31:11.587Z,7.10
2023-05-18T14:33:38.150Z,7.03
2023-05-18T14:36:04.971Z,7.05
2023-05-18T14:38:31.701Z,7.13
2023-05-18T14:40:58.206Z,7.07
2023-05-18T14:43:24.738Z,6.93
2023-05-18T14:46:06.911Z,6.90
2023-05-18T14:48:34.917Z,7.82
2023-05-18T14:51:01.505Z,7.70
2023-05-18T14:53:28.077Z,7.30
2023-05-18T14:55:54.633Z,7.22
2023-05-18T14:58:21.208Z,7.63
2023-05-18T15:00:47.847Z,7.47
2023-05-18T15:03:14.613Z,7.00
2023-05-18T15:05:41.595Z,7.22
2023-05-18T15:08:08.163Z,6.68
2023-05-18T15:10:34.739Z,7.35
2023-05-18T15:13:01.341Z,8.07
2023-05-18T15:15:27.866Z,7.88
2023-05-18T15:17:54.447Z,6.78
2023-05-18T15:20:20.998Z,6.93
2023-05-18T15:22:47.518Z,6.35
2023-05-18T15:25:14.163Z,7.40
2023-05-18T15:27:40.747Z,6.95
2023-05-18T15:30:11.711Z,7.40
2023-05-18T15:32:38.914Z,8.82
2023-05-18T15:35:06.110Z,6.60
2023-05-18T15:37:33.435Z,6.78
2023-05-18T15:40:00.013Z,6.95
2023-05-18T15:42:26.672Z,6.40
2023-05-18T15:44:53.325Z,7.88
2023-05-18T15:47:19.823Z,7.60
2023-05-18T15:49:46.320Z,7.53
2023-05-18T15:52:12.904Z,6.60
2023-05-18T15:54:39.446Z,6.25
2023-05-18T15:57:06.256Z,6.50
2023-05-18T15:59:32.837Z,6.05
2023-05-18T16:01:59.432Z,5.82
2023-05-18T16:04:25.945Z,5.78
2023-05-18T16:06:52.473Z,6.30
2023-05-18T16:09:19.119Z,6.40
2023-05-18T16:11:45.714Z,7.05
2023-05-18T16:14:12.303Z,8.13
2023-05-18T16:16:38.930Z,6.30
2023-05-18T16:19:07.159Z,5.90
2023-05-18T16:21:33.807Z,6.28
2023-05-18T16:24:00.416Z,5.90
2023-05-18T16:26:27.100Z,6.45
2023-05-18T16:28:53.683Z,5.80
2023-05-18T16:31:20.449Z,6.18
2023-05-18T16:33:47.033Z,5.72
2023-05-18T16:36:13.615Z,6.18
2023-05-18T16:38:40.177Z,5.55
2023-05-18T16:41:07.207Z,5.70
2023-05-18T16:43:34.352Z,7.90
2023-05-18T16:46:00.998Z,6.05
2023-05-18T16:48:27.640Z,5.70
2023-05-18T16:50:54.138Z,5.50
2023-05-18T16:53:20.659Z,5.50
2023-05-18T16:55:47.255Z,6.40
2023-05-18T16:58:13.944Z,6.00
2023-05-18T17:00:40.812Z,5.82
2023-05-18T17:03:07.470Z,5.93
2023-05-18T17:05:34.695Z,6.30
2023-05-18T17:08:01.507Z,6.07
2023-05-18T17:10:28.106Z,6.30
2023-05-18T17:12:55.249Z,6.10
2023-05-18T17:15:22.017Z,5.88
2023-05-18T17:17:48.635Z,5.80
2023-05-18T17:20:15.215Z,6.10
2023-05-18T17:22:41.846Z,6.50
2023-05-18T17:25:08.860Z,6.95
2023-05-18T17:27:35.884Z,6.43
2023-05-18T17:30:02.507Z,5.97
2023-05-18T17:32:29.143Z,6.80
2023-05-18T17:34:55.914Z,6.70
2023-05-18T17:37:22.635Z,6.50
2023-05-18T17:39:49.225Z,7.82
2023-05-18T17:42:16.293Z,8.23
2023-05-18T17:44:43.540Z,6.97
2023-05-18T17:47:11.434Z,7.18
2023-05-18T17:49:38.489Z,6.95
2023-05-18T17:52:05.540Z,7.68
2023-05-18T17:54:32.118Z,6.75
2023-05-18T17:56:58.708Z,6.55
2023-05-18T17:59:25.316Z,7.10
2023-05-18T18:01:51.909Z,7.50
2023-05-18T18:04:18.727Z,8.02
2023-05-18T18:06:45.519Z,8.15
2023-05-18T18:09:12.195Z,7.82
2023-05-18T18:11:38.782Z,6.90
2023-05-18T18:14:06.124Z,7.00
2023-05-18T18:16:33.830Z,8.73
2023-05-18T18:19:00.588Z,8.15
2023-05-18T18:21:27.136Z,7.50
2023-05-18T18:23:53.696Z,7.93
2023-05-18T18:26:21.672Z,7.57
2023-05-18T18:28:48.236Z,6.72
2023-05-18T18:31:15.153Z,7.55
2023-05-18T18:33:43.831Z,7.65
2023-05-18T18:36:10.403Z,7.03
2023-05-18T18:38:37.179Z,7.22
2023-05-18T18:41:05.212Z,7.07
2023-05-18T18:43:31.927Z,7.57
2023-05-18T18:45:59.222Z,7.63
2023-05-18T18:48:26.071Z,7.47
2023-05-18T18:50:53.268Z,8.45
2023-05-18T18:53:20.005Z,6.97
2023-05-18T18:55:46.686Z,6.90
2023-05-18T18:58:13.257Z,7.63
2023-05-18T19:00:39.831Z,7.93
2023-05-18T19:03:06.512Z,8.98
2023-05-18T19:05:33.386Z,7.75
2023-05-18T19:08:01.898Z,7.45
2023-05-18T19:10:28.692Z,7.60
2023-05-18T19:12:55.619Z,7.85
2023-05-18T19:15:22.280Z,7.05
2023-05-18T19:17:53.657Z,7.03
2023-05-18T19:20:20.956Z,6.82
2023-05-18T19:22:47.649Z,6.90
2023-05-18T19:25:14.608Z,8.32
2023-05-18T19:27:41.866Z,8.50
2023-05-18T19:30:08.889Z,9.32
2023-05-18T19:32:35.714Z,8.20
2023-05-18T19:35:02.444Z,7.85
2023-05-18T19:37:29.009Z,7.22
2023-05-18T19:39:55.680Z,8.00
2023-05-18T19:42:22.288Z,7.25
2023-05-18T19:44:48.862Z,7.50
2023-05-18T19:47:15.503Z,7.95
2023-05-18T19:49:44.513Z,7.30
2023-05-18T19:52:11.419Z,7.40
2023-05-18T19:54:38.473Z,7.43
2023-05-18T19:57:05.248Z,8.38
2023-05-18T19:59:31.869Z,7.65
2023-05-18T20:01:59.371Z,7.32
2023-05-18T20:04:28.276Z,7.85
2023-05-18T20:06:58.556Z,7.82
2023-05-18T20:09:25.164Z,8.37
2023-05-18T20:11:51.852Z,8.02
2023-05-18T20:14:18.451Z,7.80
2023-05-18T20:16:45.171Z,8.15
2023-05-18T20:19:13.796Z,8.13
2023-05-18T20:21:41.240Z,7.88
2023-05-18T20:24:07.935Z,7.65
2023-05-18T20:26:34.465Z,8.27
2023-05-18T20:29:01.149Z,8.07
2023-05-18T20:31:27.772Z,7.90
2023-05-18T20:33:57.478Z,7.97
2023-05-18T20:36:25.268Z,8.65
2023-05-18T20:38:54.243Z,7.85
2023-05-18T20:41:21.036Z,7.43
2023-05-18T20:43:50.293Z,8.52
2023-05-18T20:46:17.558Z,8.73
2023-05-18T20:48:44.772Z,8.60
2023-05-18T20:51:17.582Z,8.45
2023-05-18T20:53:45.631Z,8.20
2023-05-18T20:56:12.751Z,8.30
2023-05-18T20:58:42.582Z,7.90
2023-05-18T21:01:10.867Z,8.45
2023-05-18T21:03:38.511Z,8.25
2023-05-18T21:06:05.556Z,9.15
2023-05-18T21:08:32.535Z,8.55
2023-05-18T21:10:59.125Z,8.60
2023-05-18T21:13:25.657Z,8.48
2023-05-18T21:15:52.326Z,8.98
2023-05-18T21:18:18.947Z,8.05
2023-05-18T21:20:45.714Z,8.43
2023-05-18T21:23:12.269Z,8.02
2023-05-18T21:25:38.847Z,7.88
2023-05-18T21:28:05.552Z,8.80
2023-05-18T21:30:32.522Z,8.73
2023-05-18T21:33:01.059Z,8.15
2023-05-18T21:35:27.819Z,7.95
2023-05-18T21:37:54.402Z,8.82
2023-05-18T21:40:21.406Z,8.15
2023-05-18T21:42:48.161Z,8.57
2023-05-18T21:45:15.023Z,7.95
2023-05-18T21:47:41.689Z,9.00
2023-05-18T21:50:08.650Z,8.77
2023-05-18T21:52:35.328Z,8.55
2023-05-18T21:55:01.948Z,8.88
2023-05-18T21:57:28.510Z,8.43
2023-05-18T21:59:55.038Z,9.15
2023-05-18T22:02:21.625Z,8.57
2023-05-18T22:04:48.208Z,8.23
2023-05-18T22:07:14.800Z,7.93
2023-05-18T22:09:41.541Z,8.43
2023-05-18T22:12:08.177Z,8.25
2023-05-18T22:14:34.693Z,8.93
2023-05-18T22:17:02.332Z,8.45
2023-05-18T22:19:29.014Z,8.88
2023-05-18T22:21:55.642Z,8.80
2023-05-18T22:24:22.193Z,8.52
2023-05-18T22:26:48.809Z,8.70
2023-05-18T22:29:15.500Z,8.60
2023-05-18T22:31:42.118Z,8.65
2023-05-18T22:34:08.778Z,8.45
2023-05-18T22:36:35.364Z,8.30
2023-05-18T22:39:02.026Z,8.80
2023-05-18T22:41:28.593Z,8.93
2023-05-18T22:43:55.158Z,8.60
2023-05-18T22:46:21.709Z,8.60
2023-05-18T22:48:48.278Z,9.13
2023-05-18T22:51:15.664Z,9.00
2023-05-18T22:53:42.152Z,8.90
2023-05-18T22:56:08.646Z,8.20
2023-05-18T22:58:35.223Z,8.10
2023-05-18T23:01:01.777Z,8.02
2023-05-18T23:03:28.308Z,9.27
2023-05-18T23:05:54.925Z,8.55
2023-05-18T23:08:21.547Z,8.95
2023-05-18T23:10:48.117Z,8.85
2023-05-18T23:13:16.149Z,8.60
2023-05-18T23:15:42.861Z,8.85
2023-05-18T23:18:10.240Z,10.05
2023-05-18T23:20:38.556Z,8.77
2023-05-18T23:23:05.276Z,9.00
2023-05-18T23:25:31.833Z,8.77
2023-05-18T23:27:58.442Z,8.48
2023-05-18T23:30:25.074Z,8.68
2023-05-18T23:32:53.070Z,8.70
2023-05-18T23:35:20.121Z,8.80
2023-05-18T23:37:48.950Z,9.18
2023-05-18T23:40:17.995Z,9.20
2023-05-18T23:42:45.117Z,9.13
2023-05-18T23:45:12.351Z,9.45
2023-05-18T23:47:39.199Z,8.65
2023-05-18T23:50:06.659Z,9.48
2023-05-18T23:52:34.605Z,9.77
2023-05-18T23:55:01.689Z,9.68
2023-05-18T23:57:28.525Z,9.48
2023-05-18T23:59:55.490Z,9.00
